Time;durP1;ratioP1;P1;durP2;ratioP2;P2;SDS_P1;SDS_P2;PMS_P1;PMS_P2;Temp;Humidity;BMP_temperature;BMP_pressure;BME280_temperature;BME280_humidity;BME280_pressure;Samples;Min_cycle;Max_cycle;Signal;HPM_P1;HPM_P2
2021/01/27 00:02:10;;;;;;;115.93;53.42;;;1.70;95.90;;;;;;5095245;28;20028;-70
2021/01/27 00:04:36;;;;;;;143.07;58.25;;;1.60;96.10;;;;;;5096701;28;20028;-71
2021/01/27 00:07:02;;;;;;;82.75;40.03;;;1.60;96.10;;;;;;5096917;28;20458;-70
2021/01/27 00:09:29;;;;;;;98.18;43.90;;;1.60;96.20;;;;;;5095013;28;20032;-70
2021/01/27 00:11:55;;;;;;;99.78;41.80;;;1.60;96.30;;;;;;5095297;28;20444;-71
2021/01/27 00:14:21;;;;;;;145.57;58.58;;;1.60;96.40;;;;;;5095811;28;20042;-69
2021/01/27 00:16:47;;;;;;;131.23;52.75;;;1.60;96.30;;;;;;5095090;28;20028;-70
2021/01/27 00:19:13;;;;;;;90.18;41.20;;;1.60;96.30;;;;;;5095103;28;20024;-70
2021/01/27 00:21:39;;;;;;;84.65;39.25;;;1.70;96.20;;;;;;5095296;28;20122;-70
2021/01/27 00:24:05;;;;;;;101.22;45.90;;;1.70;96.30;;;;;;5095095;28;20028;-70
2021/01/27 00:26:31;;;;;;;118.47;48.25;;;1.60;96.60;;;;;;5094980;28;20024;-69
2021/01/27 00:28:56;;;;;;;99.30;46.13;;;1.60;96.40;;;;;;5094701;28;20039;-70
2021/01/27 00:31:22;;;;;;;103.32;46.75;;;1.60;96.50;;;;;;5094832;28;20055;-70
2021/01/27 00:33:48;;;;;;;78.05;38.58;;;1.50;96.60;;;;;;5094736;28;20118;-69
2021/01/27 00:36:14;;;;;;;148.43;63.38;;;1.60;96.60;;;;;;5094508;28;20024;-69
2021/01/27 00:38:40;;;;;;;85.75;39.63;;;1.60;96.60;;;;;;5094755;28;20534;-70
2021/01/27 00:41:06;;;;;;;55.47;28.75;;;1.60;96.60;;;;;;5094699;28;20028;-70
2021/01/27 00:43:31;;;;;;;69.50;34.70;;;1.60;96.60;;;;;;5094344;28;20021;-70
2021/01/27 00:45:57;;;;;;;55.72;29.75;;;1.60;96.60;;;;;;5094578;28;20397;-71
2021/01/27 00:48:23;;;;;;;79.07;37.97;;;1.60;96.40;;;;;;5094544;28;20556;-70
2021/01/27 00:50:49;;;;;;;72.10;35.85;;;1.60;96.40;;;;;;5094191;28;20020;-70
2021/01/27 00:53:15;;;;;;;80.00;39.03;;;1.60;96.60;;;;;;5094346;28;20024;-71
2021/01/27 00:55:41;;;;;;;91.32;42.78;;;1.60;96.50;;;;;;5095667;28;20031;-70
2021/01/27 00:58:08;;;;;;;63.60;31.70;;;1.60;96.50;;;;;;5095337;28;20028;-70
2021/01/27 01:00:36;;;;;;;54.50;29.50;;;1.60;96.60;;;;;;5093887;28;20052;-70
2021/01/27 01:03:03;;;;;;;63.80;33.40;;;1.60;96.50;;;;;;5093484;28;20024;-70
2021/01/27 01:05:32;;;;;;;67.90;33.83;;;1.60;96.40;;;;;;5095173;28;20024;-70
2021/01/27 01:07:58;;;;;;;93.35;45.83;;;1.60;96.30;;;;;;5094182;28;20086;-70
2021/01/27 01:10:27;;;;;;;46.28;26.45;;;1.60;96.40;;;;;;5093864;28;20066;-70
2021/01/27 01:12:53;;;;;;;59.38;32.28;;;1.60;96.30;;;;;;5094308;28;20031;-70
2021/01/27 01:15:20;;;;;;;58.78;32.67;;;1.70;96.40;;;;;;5093897;28;20481;-69
2021/01/27 01:17:46;;;;;;;55.78;31.23;;;1.70;96.40;;;;;;5095254;28;20028;-69
2021/01/27 01:20:16;;;;;;;74.20;40.88;;;1.70;96.20;;;;;;5093924;28;20028;-70
2021/01/27 01:22:50;;;;;;;62.35;34.05;;;1.70;96.30;;;;;;5093795;28;20107;-71
2021/01/27 01:25:18;;;;;;;72.97;39.30;;;1.70;96.30;;;;;;5093692;28;20030;-70
2021/01/27 01:27:44;;;;;;;60.17;32.65;;;1.70;96.20;;;;;;5093731;28;20161;-71
2021/01/27 01:30:32;;;;;;;55.78;31.58;;;1.70;96.30;;;;;;5093723;28;20053;-69
2021/01/27 01:33:02;;;;;;;50.92;29.45;;;1.70;96.20;;;;;;5094691;28;20024;-72
2021/01/27 01:35:28;;;;;;;60.35;34.88;;;1.70;96.50;;;;;;5093561;28;20482;-69
2021/01/27 01:37:54;;;;;;;64.95;34.35;;;1.70;96.30;;;;;;5093561;28;20046;-70
2021/01/27 01:40:25;;;;;;;50.33;29.55;;;1.70;96.30;;;;;;5093212;28;20461;-69
2021/01/27 01:43:15;;;;;;;59.45;32.83;;;1.70;96.30;;;;;;5093930;28;20028;-70
2021/01/27 01:45:43;;;;;;;51.03;29.77;;;1.70;96.20;;;;;;5093553;28;20028;-69
2021/01/27 01:48:28;;;;;;;55.25;31.90;;;1.70;96.30;;;;;;5093363;28;20024;-71
2021/01/27 01:51:25;;;;;;;38.80;23.48;;;1.70;96.10;;;;;;5093888;28;20028;-69
2021/01/27 01:53:55;;;;;;;45.78;26.65;;;1.70;96.10;;;;;;5093923;28;20478;-69
2021/01/27 01:56:26;;;;;;;41.45;24.92;;;1.60;96.00;;;;;;5093232;28;20024;-71
2021/01/27 01:58:54;;;;;;;43.53;25.65;;;1.70;96.30;;;;;;5092980;28;20066;-69
2021/01/27 02:01:21;;;;;;;36.30;22.98;;;1.60;96.20;;;;;;5092822;28;20051;-71
2021/01/27 02:03:49;;;;;;;37.30;22.23;;;1.60;96.30;;;;;;5093165;28;20024;-70
2021/01/27 02:06:15;;;;;;;35.10;21.65;;;1.60;96.50;;;;;;5092777;28;20162;-70
2021/01/27 02:08:47;;;;;;;36.80;23.42;;;1.60;96.90;;;;;;5093063;28;20027;-70
2021/01/27 02:11:17;;;;;;;56.95;30.52;;;1.50;97.30;;;;;;5093000;28;20026;-70
2021/01/27 02:14:07;;;;;;;58.15;31.98;;;1.50;97.40;;;;;;5092634;28;20078;-69
2021/01/27 02:16:38;;;;;;;73.60;39.72;;;1.50;97.50;;;;;;5094107;28;20497;-71
2021/01/27 02:19:13;;;;;;;69.30;35.05;;;1.50;97.60;;;;;;5092840;28;20389;-70
2021/01/27 02:21:57;;;;;;;181.60;77.70;;;1.50;97.60;;;;;;5093565;28;20031;-70
2021/01/27 02:24:50;;;;;;;93.37;44.63;;;1.50;98.00;;;;;;5092758;28;20074;-70
2021/01/27 02:27:35;;;;;;;81.28;39.72;;;1.50;97.90;;;;;;5093804;28;20027;-71
2021/01/27 02:30:19;;;;;;;;;;;1.50;98.20;;;;;;5093199;28;20111;-69
2021/01/27 02:33:25;;;;;;;64.22;33.95;;;1.40;98.50;;;;;;5092703;28;19904;-70
2021/01/27 02:36:09;;;;;;;55.38;30.40;;;1.40;98.70;;;;;;5093459;28;20036;-70
2021/01/27 02:39:00;;;;;;;133.25;60.95;;;1.40;98.70;;;;;;5092816;28;20032;-70
2021/01/27 02:41:41;;;;;;;63.25;34.47;;;1.30;99.00;;;;;;5092183;28;20032;-70
2021/01/27 02:44:14;;;;;;;66.32;36.30;;;1.30;98.70;;;;;;5092631;28;20028;-69
2021/01/27 02:46:51;;;;;;;73.28;39.10;;;1.30;98.70;;;;;;5092766;28;20485;-70
2021/01/27 02:49:35;;;;;;;45.40;27.95;;;1.30;98.50;;;;;;5092223;28;20461;-70
2021/01/27 02:52:09;;;;;;;49.88;29.90;;;1.30;98.50;;;;;;5092846;28;20016;-70
2021/01/27 02:54:59;;;;;;;41.50;24.98;;;1.30;98.50;;;;;;5093137;28;20389;-72
2021/01/27 02:57:32;;;;;;;58.13;32.53;;;1.40;98.40;;;;;;5092206;28;20378;-69
2021/01/27 03:00:11;;;;;;;53.17;32.00;;;1.40;98.20;;;;;;5094220;28;20048;-71
2021/01/27 03:02:44;;;;;;;75.18;38.83;;;1.40;98.20;;;;;;5092108;28;20377;-71
2021/01/27 03:05:26;;;;;;;60.22;32.47;;;1.40;98.40;;;;;;5092949;28;20077;-69
2021/01/27 03:08:00;;;;;;;52.13;28.65;;;1.40;98.20;;;;;;5093682;28;20097;-70
2021/01/27 03:10:55;;;;;;;74.13;40.03;;;1.50;98.10;;;;;;5092082;28;20024;-70
2021/01/27 03:13:20;;;;;;;69.57;36.10;;;1.40;98.10;;;;;;5078344;28;20032;-69
2021/01/27 03:15:47;;;;;;;53.97;28.98;;;1.50;98.10;;;;;;5092260;28;20039;-70
2021/01/27 03:18:28;;;;;;;70.63;37.08;;;1.50;98.00;;;;;;5091990;28;20027;-69
2021/01/27 03:20:59;;;;;;;72.18;34.83;;;1.50;97.80;;;;;;5093245;28;20070;-69
2021/01/27 03:23:48;;;;;;;70.90;33.25;;;1.60;97.90;;;;;;5092789;28;20364;-71
2021/01/27 03:26:25;;;;;;;65.05;30.05;;;1.60;97.60;;;;;;5092638;28;20032;-70
2021/01/27 03:29:10;;;;;;;63.97;30.17;;;1.50;97.60;;;;;;5095873;28;20024;-70
2021/01/27 03:31:36;;;;;;;59.35;27.50;;;1.50;97.80;;;;;;5096020;28;20024;-69
2021/01/27 03:34:10;;;;;;;58.20;28.48;;;1.60;97.60;;;;;;5095876;28;20062;-70
2021/01/27 03:36:45;;;;;;;51.72;27.25;;;1.60;97.40;;;;;;5097093;28;20025;-69
2021/01/27 03:39:14;;;;;;;63.08;30.98;;;1.60;97.80;;;;;;5095761;28;20051;-69
2021/01/27 03:41:53;;;;;;;48.47;25.38;;;1.50;97.70;;;;;;5095773;28;20031;-69
2021/01/27 03:44:33;;;;;;;46.72;24.55;;;1.50;97.80;;;;;;5096756;28;20028;-70
2021/01/27 03:47:08;;;;;;;46.00;23.67;;;1.50;97.90;;;;;;5095773;28;20038;-71
2021/01/27 03:49:54;;;;;;;48.97;26.30;;;1.40;97.90;;;;;;5096221;28;20028;-68
2021/01/27 03:52:45;;;;;;;82.68;39.95;;;1.40;97.80;;;;;;5094829;28;20123;-70
2021/01/27 03:55:23;;;;;;;82.38;42.03;;;1.40;97.80;;;;;;5097183;28;20393;-70
2021/01/27 03:58:01;;;;;;;82.28;38.28;;;1.40;97.70;;;;;;5096851;28;20051;-71
2021/01/27 04:00:30;;;;;;;56.10;30.58;;;1.40;97.70;;;;;;5094985;28;20047;-69
2021/01/27 04:03:00;;;;;;;131.73;57.25;;;1.50;97.80;;;;;;5096751;28;20024;-72
2021/01/27 04:05:26;;;;;;;154.70;64.97;;;1.50;97.90;;;;;;5095130;28;20037;-69
2021/01/27 04:07:51;;;;;;;62.58;31.13;;;1.40;97.70;;;;;;5095345;28;20034;-69
2021/01/27 04:10:17;;;;;;;96.45;45.22;;;1.40;97.60;;;;;;5096323;28;20024;-70
2021/01/27 04:12:43;;;;;;;77.65;35.53;;;1.40;97.80;;;;;;5094992;28;20028;-70
2021/01/27 04:15:09;;;;;;;57.45;29.38;;;1.50;97.70;;;;;;5095142;28;20086;-72
2021/01/27 04:17:35;;;;;;;92.85;50.55;;;1.50;97.60;;;;;;5094940;28;20045;-69
2021/01/27 04:20:00;;;;;;;38.25;23.17;;;1.50;97.60;;;;;;5094261;28;20028;-70
2021/01/27 04:22:26;;;;;;;56.20;29.75;;;1.50;97.50;;;;;;5096269;28;20028;-71
2021/01/27 04:24:52;;;;;;;69.32;36.05;;;1.50;97.60;;;;;;5095289;28;20066;-71
2021/01/27 04:27:18;;;;;;;144.70;64.65;;;1.50;97.60;;;;;;5094683;28;20063;-69
2021/01/27 04:29:44;;;;;;;50.03;27.08;;;1.40;97.30;;;;;;5095990;28;20020;-70
2021/01/27 04:32:10;;;;;;;87.97;42.95;;;1.50;97.60;;;;;;5095457;28;20024;-71
2021/01/27 04:34:35;;;;;;;79.70;39.75;;;1.50;97.60;;;;;;5094442;28;20493;-70
2021/01/27 04:37:02;;;;;;;82.10;42.08;;;1.50;97.60;;;;;;5095968;28;20035;-70
2021/01/27 04:39:28;;;;;;;85.38;39.28;;;1.50;97.40;;;;;;5094758;28;20032;-70
2021/01/27 04:41:55;;;;;;;104.85;44.75;;;1.50;97.50;;;;;;5094376;28;20488;-69
2021/01/27 04:44:22;;;;;;;270.50;106.93;;;1.40;97.70;;;;;;5095895;28;20032;-69
2021/01/27 04:46:53;;;;;;;69.22;33.00;;;1.50;97.70;;;;;;5094626;28;20061;-69
2021/01/27 04:49:27;;;;;;;61.08;31.40;;;1.50;97.90;;;;;;5094225;28;20031;-69
2021/01/27 04:52:18;;;;;;;41.78;24.20;;;1.50;97.80;;;;;;5094912;28;20031;-70
2021/01/27 04:54:47;;;;;;;79.05;37.30;;;1.40;97.80;;;;;;5095517;28;20028;-70
2021/01/27 04:57:22;;;;;;;65.13;33.83;;;1.50;98.00;;;;;;5095201;28;20024;-71
2021/01/27 05:00:11;;;;;;;89.20;43.85;;;1.50;97.80;;;;;;5094080;28;20520;-70
2021/01/27 05:03:05;;;;;;;82.22;39.53;;;1.40;97.90;;;;;;5094241;28;20354;-70
2021/01/27 05:05:34;;;;;;;41.08;23.73;;;1.50;97.80;;;;;;5095537;28;20031;-70
2021/01/27 05:08:20;;;;;;;35.90;21.52;;;1.50;97.80;;;;;;5094193;28;20032;-69
2021/01/27 05:10:55;;;;;;;69.97;37.63;;;1.50;97.80;;;;;;5094800;28;20031;-70
2021/01/27 05:13:34;;;;;;;31.38;19.27;;;1.50;97.70;;;;;;5095521;28;20347;-70
2021/01/27 05:16:21;;;;;;;39.35;24.17;;;1.50;97.70;;;;;;5093765;28;20044;-69
2021/01/27 05:18:51;;;;;;;39.35;24.20;;;1.50;97.70;;;;;;5093826;28;20024;-70
2021/01/27 05:21:31;;;;;;;53.65;31.65;;;1.50;97.70;;;;;;5093852;28;20119;-69
2021/01/27 05:23:58;;;;;;;35.50;22.38;;;1.50;97.80;;;;;;5093557;28;20036;-69
2021/01/27 05:26:48;;;;;;;51.03;30.83;;;1.50;97.80;;;;;;5095982;28;20034;-69
2021/01/27 05:29:40;;;;;;;35.28;22.20;;;1.50;97.80;;;;;;5092399;28;20036;-69
2021/01/27 05:32:18;;;;;;;33.83;21.85;;;1.50;97.90;;;;;;5093890;28;20024;-70
2021/01/27 05:34:47;;;;;;;48.05;28.98;;;1.50;97.80;;;;;;5093593;28;20119;-69
2021/01/27 05:37:14;;;;;;;31.27;18.20;;;1.50;97.90;;;;;;5094500;28;20028;-70
2021/01/27 05:39:42;;;;;;;30.73;19.77;;;1.50;97.90;;;;;;5093596;28;20028;-69
2021/01/27 05:42:30;;;;;;;30.15;19.52;;;1.50;98.00;;;;;;5093532;28;20031;-69
2021/01/27 05:45:19;;;;;;;23.15;14.65;;;1.50;98.50;;;;;;5093446;28;20491;-68
2021/01/27 05:47:45;;;;;;;24.90;15.18;;;1.50;98.00;;;;;;5093352;28;20032;-68
2021/01/27 05:50:33;;;;;;;67.28;36.00;;;1.50;98.10;;;;;;5094223;28;20129;-70
2021/01/27 05:53:15;;;;;;;347.80;177.55;;;1.60;97.90;;;;;;5093050;28;20026;-69
2021/01/27 05:56:14;;;;;;;581.30;208.65;;;1.60;97.90;;;;;;5094744;28;20035;-69
2021/01/27 05:58:44;;;;;;;98.68;39.08;;;1.60;97.90;;;;;;5086601;28;20063;-70
2021/01/27 06:01:14;;;;;;;98.20;37.58;;;1.60;97.90;;;;;;5094595;28;20051;-69
2021/01/27 06:03:49;;;;;;;177.95;102.22;;;1.60;97.90;;;;;;5093145;28;20027;-68
2021/01/27 06:06:15;;;;;;;61.53;33.53;;;1.50;98.10;;;;;;5094484;28;20224;-69
2021/01/27 06:08:49;;;;;;;26.17;17.10;;;1.50;98.00;;;;;;5094059;28;20032;-69
2021/01/27 06:11:16;;;;;;;48.22;24.20;;;1.50;98.00;;;;;;5094074;28;20024;-70
2021/01/27 06:13:41;;;;;;;32.90;20.40;;;1.50;98.30;;;;;;5091457;28;20032;-70
2021/01/27 06:16:22;;;;;;;26.45;16.55;;;1.50;98.10;;;;;;5092721;28;20043;-69
2021/01/27 06:18:48;;;;;;;43.97;22.13;;;1.40;98.00;;;;;;5093953;28;20115;-69
2021/01/27 06:21:14;;;;;;;49.97;24.60;;;1.40;98.10;;;;;;5092139;28;20097;-71
2021/01/27 06:24:15;;;;;;;58.28;28.38;;;1.50;98.00;;;;;;5092536;28;20035;-69
2021/01/27 06:27:13;;;;;;;48.88;23.70;;;1.50;98.00;;;;;;5092536;28;20020;-69
2021/01/27 06:29:56;;;;;;;47.63;21.80;;;1.40;98.00;;;;;;5093411;28;20020;-70
2021/01/27 06:32:40;;;;;;;55.20;24.25;;;1.40;98.00;;;;;;5094012;28;20021;-69
2021/01/27 06:35:36;;;;;;;65.13;26.77;;;1.40;98.10;;;;;;5092653;28;20032;-69
2021/01/27 06:38:30;;;;;;;52.92;25.90;;;1.40;98.00;;;;;;5094264;28;20016;-69
2021/01/27 06:41:40;;;;;;;36.65;21.27;;;1.40;98.00;;;;;;5094080;28;20028;-68
2021/01/27 06:44:30;;;;;;;46.10;24.02;;;1.30;98.20;;;;;;5094017;28;20063;-68
2021/01/27 06:47:40;;;;;;;37.40;20.75;;;1.40;98.20;;;;;;5094069;28;20032;-68
2021/01/27 06:50:09;;;;;;;38.15;21.67;;;1.30;98.10;;;;;;5067226;28;20028;-69
2021/01/27 06:53:16;;;;;;;33.10;21.35;;;1.40;98.10;;;;;;5093776;28;20023;-70
2021/01/27 06:56:03;;;;;;;31.63;20.40;;;1.30;97.90;;;;;;5091501;28;20047;-69
2021/01/27 06:59:08;;;;;;;47.05;26.30;;;1.30;97.90;;;;;;5092495;28;20031;-69
2021/01/27 07:02:07;;;;;;;52.65;29.05;;;1.30;97.90;;;;;;5075054;28;20043;-70
2021/01/27 07:04:47;;;;;;;41.80;24.90;;;1.30;98.10;;;;;;5096784;28;20024;-69
2021/01/27 07:07:31;;;;;;;68.93;35.13;;;1.30;98.00;;;;;;5097516;28;20020;-70
2021/01/27 07:10:19;;;;;;;68.13;32.45;;;1.20;98.00;;;;;;5097570;28;20027;-69
2021/01/27 07:12:52;;;;;;;63.10;34.35;;;1.20;98.00;;;;;;5097066;28;20093;-68
2021/01/27 07:15:52;;;;;;;120.57;76.97;;;1.20;98.00;;;;;;5097497;28;20032;-72
2021/01/27 07:18:30;;;;;;;79.38;46.22;;;1.30;98.10;;;;;;5082846;28;20040;-69
2021/01/27 07:21:21;;;;;;;77.72;40.90;;;1.40;98.00;;;;;;5097353;28;20515;-70
2021/01/27 07:24:24;;;;;;;96.28;46.28;;;1.40;97.90;;;;;;5096579;28;20362;-69
2021/01/27 07:27:09;;;;;;;108.22;60.50;;;1.40;98.10;;;;;;5097209;28;20059;-69
2021/01/27 07:30:07;;;;;;;76.65;41.55;;;1.40;97.80;;;;;;5095846;28;20020;-68
2021/01/27 07:32:42;;;;;;;61.65;38.28;;;1.50;97.60;;;;;;5096072;28;20028;-70
2021/01/27 07:35:15;;;;;;;70.15;40.90;;;1.70;97.40;;;;;;5095980;28;20040;-69
2021/01/27 07:37:52;;;;;;;93.03;47.78;;;1.70;97.30;;;;;;5096286;28;20351;-69
2021/01/27 07:40:43;;;;;;;59.75;33.35;;;1.80;97.40;;;;;;5095987;28;20118;-68
2021/01/27 07:43:30;;;;;;;60.00;36.65;;;1.70;97.20;;;;;;5097014;28;20518;-68
2021/01/27 07:45:56;;;;;;;77.97;43.72;;;1.60;97.40;;;;;;5096850;28;20032;-71
2021/01/27 07:48:29;;;;;;;75.20;41.42;;;1.70;97.40;;;;;;5095800;28;20024;-69
2021/01/27 07:51:03;;;;;;;92.13;47.20;;;1.80;97.30;;;;;;5095472;28;20118;-69
2021/01/27 07:53:47;;;;;;;93.43;51.35;;;1.80;97.20;;;;;;5097484;28;20027;-69
2021/01/27 07:56:27;;;;;;;69.03;41.10;;;1.90;97.20;;;;;;5096679;28;20060;-71
2021/01/27 07:59:14;;;;;;;80.20;45.50;;;1.90;97.00;;;;;;5097266;28;20026;-70
2021/01/27 08:02:11;;;;;;;56.38;32.03;;;1.80;97.10;;;;;;5095502;28;20032;-68
2021/01/27 08:04:48;;;;;;;94.75;49.13;;;1.90;97.10;;;;;;5090256;28;20132;-70
2021/01/27 08:07:36;;;;;;;144.48;64.45;;;1.90;97.00;;;;;;5096431;28;20048;-70
2021/01/27 08:10:26;;;;;;;216.93;96.22;;;1.90;97.30;;;;;;5095981;28;20035;-70
2021/01/27 08:13:04;;;;;;;73.15;39.60;;;1.90;97.20;;;;;;5082158;28;20036;-70
2021/01/27 08:15:30;;;;;;;132.10;60.75;;;1.90;97.30;;;;;;5094773;28;20039;-70
2021/01/27 08:17:58;;;;;;;113.25;53.88;;;1.90;97.20;;;;;;5096083;28;20020;-70
2021/01/27 08:20:44;;;;;;;56.47;30.23;;;1.90;97.30;;;;;;5096545;28;20032;-71
2021/01/27 08:23:33;;;;;;;64.93;33.42;;;1.90;97.10;;;;;;5094922;28;20031;-68
2021/01/27 08:26:02;;;;;;;61.17;33.40;;;1.90;97.00;;;;;;5096108;28;20016;-69
2021/01/27 08:28:37;;;;;;;81.85;37.42;;;1.90;97.00;;;;;;5094632;28;20055;-69
2021/01/27 08:31:16;;;;;;;51.75;27.90;;;2.00;97.10;;;;;;5095751;28;20473;-68
2021/01/27 08:33:44;;;;;;;123.38;51.55;;;2.10;97.00;;;;;;5094763;28;20031;-70
2021/01/27 08:36:30;;;;;;;121.25;51.03;;;2.20;97.00;;;;;;5094463;28;20028;-70
2021/01/27 08:38:56;;;;;;;134.70;57.05;;;2.20;96.80;;;;;;5044065;28;20032;-69
2021/01/27 08:41:59;;;;;;;151.50;60.80;;;2.20;96.90;;;;;;5095948;28;20475;-69
2021/01/27 08:44:29;;;;;;;102.82;41.33;;;2.30;96.80;;;;;;5094173;28;20055;-70
2021/01/27 08:46:56;;;;;;;75.45;35.15;;;2.40;96.70;;;;;;5094461;28;20060;-71
2021/01/27 08:49:37;;;;;;;115.97;48.35;;;2.40;96.70;;;;;;5095180;28;20492;-70
2021/01/27 08:52:09;;;;;;;64.22;32.20;;;2.40;96.80;;;;;;5095754;28;20114;-69
2021/01/27 08:54:35;;;;;;;89.85;46.83;;;2.40;96.50;;;;;;5094319;28;20051;-71
2021/01/27 08:57:22;;;;;;;92.93;51.42;;;2.30;96.60;;;;;;5095334;28;20066;-69
2021/01/27 08:59:56;;;;;;;97.18;54.95;;;2.40;96.30;;;;;;5094056;28;20134;-69
2021/01/27 09:02:43;;;;;;;49.85;29.83;;;2.30;96.30;;;;;;5094273;28;20039;-69
2021/01/27 09:05:20;;;;;;;38.60;26.13;;;2.30;96.30;;;;;;5093835;28;20385;-68
2021/01/27 09:07:57;;;;;;;49.25;31.98;;;2.40;96.90;;;;;;5095208;28;20048;-70
2021/01/27 09:10:39;;;;;;;81.43;51.22;;;2.50;96.60;;;;;;5095437;28;20020;-68
2021/01/27 09:13:33;;;;;;;105.63;57.67;;;2.50;96.60;;;;;;5094103;28;20470;-69
2021/01/27 09:16:11;;;;;;;61.45;37.17;;;2.50;96.50;;;;;;5094147;28;20500;-71
2021/01/27 09:18:37;;;;;;;43.55;28.67;;;2.50;96.20;;;;;;5094960;28;20028;-69
2021/01/27 09:21:20;;;;;;;79.30;47.88;;;2.50;96.10;;;;;;5095169;28;20047;-69
2021/01/27 09:23:54;;;;;;;55.78;33.17;;;2.50;96.30;;;;;;5092919;28;20028;-71
2021/01/27 09:26:22;;;;;;;191.88;103.38;;;2.50;96.30;;;;;;5093694;28;20385;-69
2021/01/27 09:28:49;;;;;;;85.25;57.95;;;2.40;96.50;;;;;;5093778;28;20035;-69
2021/01/27 09:31:18;;;;;;;65.72;42.35;;;2.40;96.70;;;;;;5093402;28;20035;-69
2021/01/27 09:33:44;;;;;;;50.15;31.20;;;2.30;96.80;;;;;;5094690;28;20052;-69
2021/01/27 09:36:20;;;;;;;36.42;24.88;;;2.30;96.70;;;;;;5095281;28;20530;-70
2021/01/27 09:38:50;;;;;;;45.58;26.70;;;2.30;96.70;;;;;;5093346;28;20024;-70
2021/01/27 09:41:23;;;;;;;36.85;23.20;;;2.40;96.90;;;;;;5093659;28;20035;-69
2021/01/27 09:43:49;;;;;;;51.38;27.98;;;2.50;96.60;;;;;;5094169;28;20059;-69
2021/01/27 09:46:19;;;;;;;48.83;26.02;;;2.50;96.60;;;;;;5093440;28;20039;-69
2021/01/27 09:48:47;;;;;;;76.57;33.85;;;2.50;96.60;;;;;;5094744;28;20396;-69
2021/01/27 09:51:15;;;;;;;38.20;21.23;;;2.40;96.70;;;;;;5094636;28;20028;-68
2021/01/27 09:53:44;;;;;;;57.72;32.05;;;2.40;96.80;;;;;;5093021;28;20066;-69
2021/01/27 09:56:14;;;;;;;93.82;45.83;;;2.30;97.30;;;;;;5094272;28;20035;-70
2021/01/27 09:58:40;;;;;;;73.93;40.15;;;2.30;97.10;;;;;;5094540;28;20028;-68
2021/01/27 10:01:10;;;;;;;55.38;33.80;;;2.30;97.10;;;;;;5094841;28;20461;-69
2021/01/27 10:03:42;;;;;;;50.83;28.95;;;2.20;97.10;;;;;;5093209;28;20462;-68
2021/01/27 10:06:28;;;;;;;55.92;33.33;;;2.20;97.20;;;;;;5092757;28;20126;-68
2021/01/27 10:08:57;;;;;;;46.38;31.08;;;2.30;97.20;;;;;;5075331;28;20082;-68
2021/01/27 10:11:31;;;;;;;44.75;27.95;;;2.30;97.10;;;;;;5093929;28;20082;-68
2021/01/27 10:14:12;;;;;;;35.08;21.92;;;2.40;97.40;;;;;;5093881;28;20112;-68
2021/01/27 10:16:57;;;;;;;41.60;25.45;;;2.30;96.90;;;;;;5094138;28;20032;-67
2021/01/27 10:19:29;;;;;;;31.23;20.92;;;2.40;97.20;;;;;;5092908;28;20436;-68
2021/01/27 10:21:57;;;;;;;43.28;25.02;;;2.40;97.10;;;;;;5093848;28;20032;-68
2021/01/27 10:24:53;;;;;;;42.70;28.65;;;2.50;97.20;;;;;;5094039;28;20024;-68
2021/01/27 10:27:21;;;;;;;55.53;29.15;;;2.70;96.90;;;;;;5094017;28;20020;-67
2021/01/27 10:29:48;;;;;;;57.30;27.60;;;2.90;96.70;;;;;;5094034;28;20480;-69
2021/01/27 10:32:27;;;;;;;45.58;26.35;;;3.00;95.90;;;;;;5093580;28;20016;-68
2021/01/27 10:34:54;;;;;;;65.57;28.92;;;3.10;95.40;;;;;;5092348;28;20036;-70
2021/01/27 10:37:34;;;;;;;78.25;36.45;;;3.20;95.60;;;;;;5092497;28;20532;-69
2021/01/27 10:40:29;;;;;;;83.93;37.42;;;3.30;94.70;;;;;;5092693;28;20028;-69
2021/01/27 10:42:58;;;;;;;70.68;35.90;;;3.40;95.00;;;;;;5090041;28;20054;-71
2021/01/27 10:45:27;;;;;;;74.10;40.55;;;3.30;94.80;;;;;;5093327;28;20070;-69
2021/01/27 10:48:10;;;;;;;38.83;22.35;;;3.30;94.20;;;;;;5092252;28;20372;-68
2021/01/27 10:50:44;;;;;;;53.28;26.08;;;3.20;94.50;;;;;;5093872;28;20103;-68
2021/01/27 10:53:12;;;;;;;52.08;27.30;;;3.10;94.50;;;;;;5093810;28;20051;-68
2021/01/27 10:55:40;;;;;;;62.47;33.28;;;3.20;94.40;;;;;;5090925;28;20074;-68
2021/01/27 10:58:13;;;;;;;125.32;66.35;;;3.20;93.80;;;;;;5090907;28;20111;-71
2021/01/27 11:00:39;;;;;;;49.28;26.10;;;3.20;94.20;;;;;;5091014;28;20051;-69
2021/01/27 11:03:06;;;;;;;46.35;25.23;;;3.20;94.50;;;;;;5092026;28;20048;-69
2021/01/27 11:05:33;;;;;;;72.03;45.55;;;3.10;94.10;;;;;;5092902;28;20540;-70
2021/01/27 11:07:59;;;;;;;40.83;24.33;;;3.10;94.30;;;;;;5093643;28;20093;-69
2021/01/27 11:10:25;;;;;;;30.92;18.13;;;3.20;94.40;;;;;;5093083;28;20028;-69
2021/01/27 11:12:51;;;;;;;31.25;18.58;;;3.30;93.70;;;;;;5091828;28;20089;-69
2021/01/27 11:15:18;;;;;;;30.25;18.92;;;3.30;93.70;;;;;;5092233;28;20032;-68
2021/01/27 11:17:44;;;;;;;54.90;30.80;;;;;;;;;;5093273;28;20013;-69
2021/01/27 11:20:11;;;;;;;40.28;20.73;;;4.10;93.80;;;;;;5092249;28;20027;-68
2021/01/27 11:22:36;;;;;;;49.78;25.83;;;4.70;91.90;;;;;;5093179;28;20035;-69
2021/01/27 11:25:03;;;;;;;48.35;25.92;;;5.00;91.00;;;;;;5091918;28;20032;-70
2021/01/27 11:27:29;;;;;;;44.63;24.52;;;4.80;89.30;;;;;;5092100;28;20024;-67
2021/01/27 11:29:55;;;;;;;64.43;30.77;;;4.70;90.30;;;;;;5093186;28;20100;-70
2021/01/27 11:32:21;;;;;;;50.45;24.85;;;4.50;90.50;;;;;;5092230;28;20031;-69
2021/01/27 11:34:46;;;;;;;63.13;29.50;;;4.40;91.50;;;;;;5092021;28;20473;-69
2021/01/27 11:37:12;;;;;;;130.15;52.58;;;4.00;90.90;;;;;;5091428;28;20028;-71
2021/01/27 11:39:38;;;;;;;120.93;48.47;;;3.80;90.90;;;;;;5092314;28;20166;-70
2021/01/27 11:42:04;;;;;;;167.07;57.90;;;3.60;91.30;;;;;;5091940;28;20035;-69
2021/01/27 11:44:30;;;;;;;134.98;47.63;;;3.50;91.60;;;;;;5091451;28;20035;-70
2021/01/27 11:46:56;;;;;;;177.80;61.20;;;3.50;92.50;;;;;;5091527;28;20024;-68
2021/01/27 11:49:23;;;;;;;286.90;84.30;;;3.40;92.50;;;;;;5095331;28;20017;-69
2021/01/27 11:51:49;;;;;;;164.43;56.53;;;3.30;92.20;;;;;;5096275;28;20020;-69
2021/01/27 11:54:15;;;;;;;158.48;52.33;;;3.30;92.70;;;;;;5095625;28;20551;-70
2021/01/27 11:56:41;;;;;;;178.98;64.72;;;3.30;92.50;;;;;;5096623;28;20455;-69
2021/01/27 11:59:08;;;;;;;66.88;33.30;;;3.20;92.50;;;;;;5096206;28;20491;-70
2021/01/27 12:01:35;;;;;;;35.28;18.98;;;3.20;92.60;;;;;;5091679;28;20380;-69
2021/01/27 12:04:03;;;;;;;54.55;29.48;;;3.10;92.10;;;;;;5094136;28;20024;-70
2021/01/27 12:06:28;;;;;;;43.25;22.52;;;3.10;92.90;;;;;;5094628;28;20052;-69
2021/01/27 12:08:54;;;;;;;55.15;29.40;;;3.10;93.00;;;;;;5094033;28;20497;-70
2021/01/27 12:11:20;;;;;;;44.55;25.25;;;3.10;92.50;;;;;;5094030;28;20020;-68
2021/01/27 12:13:46;;;;;;;28.40;18.13;;;3.10;93.00;;;;;;5093367;28;20465;-69
2021/01/27 12:16:12;;;;;;;49.25;25.65;;;3.10;92.60;;;;;;5093636;28;20016;-69
2021/01/27 12:18:37;;;;;;;49.65;24.65;;;3.10;93.10;;;;;;5095571;28;20049;-69
2021/01/27 12:21:03;;;;;;;27.55;17.63;;;3.20;93.10;;;;;;5093479;28;20020;-70
2021/01/27 12:23:29;;;;;;;32.65;17.85;;;3.10;92.40;;;;;;5095958;28;20048;-69
2021/01/27 12:25:54;;;;;;;45.80;26.98;;;3.20;93.10;;;;;;5096232;28;20137;-69
2021/01/27 12:28:20;;;;;;;73.20;36.72;;;3.10;93.10;;;;;;5093885;28;20027;-70
2021/01/27 12:30:46;;;;;;;41.20;23.63;;;3.20;93.50;;;;;;5094715;28;20111;-68
2021/01/27 12:33:12;;;;;;;48.08;29.08;;;3.10;92.40;;;;;;5094625;28;20495;-69
2021/01/27 12:35:38;;;;;;;40.05;24.42;;;3.20;93.50;;;;;;5094823;28;20032;-70
2021/01/27 12:38:04;;;;;;;40.33;25.52;;;3.20;93.40;;;;;;5094813;28;20035;-69
2021/01/27 12:40:30;;;;;;;24.30;16.15;;;3.10;92.90;;;;;;5095784;28;20020;-70
2021/01/27 12:42:56;;;;;;;32.63;22.83;;;3.10;93.10;;;;;;5095284;28;20028;-70
2021/01/27 12:45:26;;;;;;;40.60;26.92;;;3.10;92.90;;;;;;5096005;28;20458;-69
2021/01/27 12:47:53;;;;;;;30.67;20.27;;;3.00;93.90;;;;;;5095801;28;20457;-69
2021/01/27 12:50:19;;;;;;;34.42;22.02;;;3.00;94.00;;;;;;5094598;28;20056;-69
2021/01/27 12:52:45;;;;;;;43.30;23.48;;;2.90;94.10;;;;;;5094627;28;20457;-69
2021/01/27 12:55:14;;;;;;;32.80;19.73;;;2.90;94.10;;;;;;5092658;28;20032;-67
2021/01/27 12:57:41;;;;;;;42.28;23.83;;;3.00;94.40;;;;;;5094182;28;20500;-68
2021/01/27 13:00:10;;;;;;;31.02;18.88;;;3.00;94.40;;;;;;5093634;28;20071;-70
2021/01/27 13:02:35;;;;;;;45.83;26.67;;;3.00;93.90;;;;;;5095626;28;20028;-69
2021/01/27 13:05:01;;;;;;;56.35;30.17;;;3.10;94.00;;;;;;5095629;28;20388;-69
2021/01/27 13:07:27;;;;;;;54.03;26.52;;;3.30;93.80;;;;;;5094272;28;20024;-69
2021/01/27 13:09:52;;;;;;;62.30;34.63;;;3.40;93.30;;;;;;5095461;28;20373;-70
2021/01/27 13:12:18;;;;;;;47.83;25.60;;;3.50;93.90;;;;;;5094060;28;20061;-69